sensor_id;sensor_type;location;lat;lon;timestamp;P1;durP1;ratioP1;P2;durP2;ratioP2
26319;SDS011;14024;52.226;5.200;2024-01-16T00:01:14;8.38;;;3.30;;
26319;SDS011;14024;52.226;5.200;2024-01-16T00:03:41;12.30;;;2.90;;
26319;SDS011;14024;52.226;5.200;2024-01-16T00:06:06;9.88;;;2.95;;
26319;SDS011;14024;52.226;5.200;2024-01-16T00:08:32;12.45;;;3.28;;
26319;SDS011;14024;52.226;5.200;2024-01-16T00:10:58;13.52;;;2.45;;
26319;SDS011;14024;52.226;5.200;2024-01-16T00:13:23;13.88;;;3.50;;
26319;SDS011;14024;52.226;5.200;2024-01-16T00:15:49;12.48;;;2.97;;
26319;SDS011;14024;52.226;5.200;2024-01-16T00:18:15;9.43;;;2.03;;
26319;SDS011;14024;52.226;5.200;2024-01-16T00:20:40;4.57;;;1.70;;
26319;SDS011;14024;52.226;5.200;2024-01-16T00:23:05;12.45;;;2.03;;
26319;SDS011;14024;52.226;5.200;2024-01-16T00:25:31;8.65;;;1.70;;
26319;SDS011;14024;52.226;5.200;2024-01-16T00:27:57;8.38;;;2.30;;
26319;SDS011;14024;52.226;5.200;2024-01-16T00:30:23;18.92;;;2.70;;
26319;SDS011;14024;52.226;5.200;2024-01-16T00:32:49;15.65;;;2.65;;
26319;SDS011;14024;52.226;5.200;2024-01-16T00:35:14;12.95;;;2.35;;
26319;SDS011;14024;52.226;5.200;2024-01-16T00:37:39;13.18;;;4.03;;
26319;SDS011;14024;52.226;5.200;2024-01-16T00:40:05;11.73;;;2.78;;
26319;SDS011;14024;52.226;5.200;2024-01-16T00:42:33;10.80;;;2.38;;
26319;SDS011;14024;52.226;5.200;2024-01-16T00:44:58;9.18;;;2.35;;
26319;SDS011;14024;52.226;5.200;2024-01-16T00:47:24;14.57;;;2.72;;
26319;SDS011;14024;52.226;5.200;2024-01-16T00:49:49;14.82;;;3.38;;
26319;SDS011;14024;52.226;5.200;2024-01-16T00:52:15;10.93;;;2.55;;
26319;SDS011;14024;52.226;5.200;2024-01-16T00:54:40;17.45;;;2.42;;
26319;SDS011;14024;52.226;5.200;2024-01-16T00:57:06;9.73;;;2.33;;
26319;SDS011;14024;52.226;5.200;2024-01-16T00:59:33;13.88;;;4.20;;
26319;SDS011;14024;52.226;5.200;2024-01-16T01:01:58;10.57;;;3.13;;
26319;SDS011;14024;52.226;5.200;2024-01-16T01:04:23;10.25;;;2.47;;
26319;SDS011;14024;52.226;5.200;2024-01-16T01:06:49;23.85;;;4.05;;
26319;SDS011;14024;52.226;5.200;2024-01-16T01:09:15;11.13;;;2.20;;
26319;SDS011;14024;52.226;5.200;2024-01-16T01:11:41;9.23;;;2.15;;
26319;SDS011;14024;52.226;5.200;2024-01-16T01:14:07;8.55;;;2.63;;
26319;SDS011;14024;52.226;5.200;2024-01-16T01:16:32;9.95;;;2.35;;
26319;SDS011;14024;52.226;5.200;2024-01-16T01:18:57;9.82;;;2.03;;
26319;SDS011;14024;52.226;5.200;2024-01-16T01:21:23;8.05;;;2.10;;
26319;SDS011;14024;52.226;5.200;2024-01-16T01:23:49;11.43;;;2.75;;
26319;SDS011;14024;52.226;5.200;2024-01-16T01:26:14;11.40;;;2.13;;
26319;SDS011;14024;52.226;5.200;2024-01-16T01:28:40;7.28;;;1.70;;
26319;SDS011;14024;52.226;5.200;2024-01-16T01:31:08;10.80;;;2.35;;
26319;SDS011;14024;52.226;5.200;2024-01-16T01:33:34;12.95;;;2.33;;
26319;SDS011;14024;52.226;5.200;2024-01-16T01:35:59;11.18;;;2.33;;
26319;SDS011;14024;52.226;5.200;2024-01-16T01:38:24;7.43;;;1.85;;
26319;SDS011;14024;52.226;5.200;2024-01-16T01:40:50;14.05;;;2.10;;
26319;SDS011;14024;52.226;5.200;2024-01-16T01:43:19;7.20;;;1.83;;
26319;SDS011;14024;52.226;5.200;2024-01-16T01:45:47;6.70;;;1.50;;
26319;SDS011;14024;52.226;5.200;2024-01-16T01:48:21;8.52;;;1.40;;
26319;SDS011;14024;52.226;5.200;2024-01-16T01:50:47;7.88;;;2.40;;
26319;SDS011;14024;52.226;5.200;2024-01-16T01:53:13;7.43;;;1.42;;
26319;SDS011;14024;52.226;5.200;2024-01-16T01:55:38;6.13;;;1.17;;
26319;SDS011;14024;52.226;5.200;2024-01-16T01:58:04;2.83;;;1.08;;
26319;SDS011;14024;52.226;5.200;2024-01-16T02:00:30;2.63;;;1.05;;
26319;SDS011;14024;52.226;5.200;2024-01-16T02:02:56;5.10;;;1.20;;
26319;SDS011;14024;52.226;5.200;2024-01-16T02:05:21;4.43;;;1.23;;
26319;SDS011;14024;52.226;5.200;2024-01-16T02:07:47;5.13;;;1.55;;
26319;SDS011;14024;52.226;5.200;2024-01-16T02:10:12;4.00;;;1.80;;
26319;SDS011;14024;52.226;5.200;2024-01-16T02:12:38;8.35;;;1.92;;
26319;SDS011;14024;52.226;5.200;2024-01-16T02:15:04;8.27;;;2.08;;
26319;SDS011;14024;52.226;5.200;2024-01-16T02:17:30;5.82;;;2.08;;
26319;SDS011;14024;52.226;5.200;2024-01-16T02:19:55;4.22;;;2.08;;
26319;SDS011;14024;52.226;5.200;2024-01-16T02:22:20;6.13;;;2.15;;
26319;SDS011;14024;52.226;5.200;2024-01-16T02:24:50;4.55;;;1.80;;
26319;SDS011;14024;52.226;5.200;2024-01-16T02:27:17;4.38;;;1.98;;
26319;SDS011;14024;52.226;5.200;2024-01-16T02:29:43;9.95;;;2.33;;
26319;SDS011;14024;52.226;5.200;2024-01-16T02:32:10;6.57;;;2.30;;
26319;SDS011;14024;52.226;5.200;2024-01-16T02:34:38;14.05;;;2.25;;
26319;SDS011;14024;52.226;5.200;2024-01-16T02:37:04;16.90;;;2.70;;
26319;SDS011;14024;52.226;5.200;2024-01-16T02:39:30;8.38;;;2.65;;
26319;SDS011;14024;52.226;5.200;2024-01-16T02:41:55;10.93;;;2.50;;
26319;SDS011;14024;52.226;5.200;2024-01-16T02:44:21;12.85;;;2.17;;
26319;SDS011;14024;52.226;5.200;2024-01-16T02:46:47;11.05;;;1.80;;
26319;SDS011;14024;52.226;5.200;2024-01-16T02:49:12;8.55;;;2.03;;
26319;SDS011;14024;52.226;5.200;2024-01-16T02:51:37;5.05;;;1.80;;
26319;SDS011;14024;52.226;5.200;2024-01-16T02:54:03;14.20;;;2.33;;
26319;SDS011;14024;52.226;5.200;2024-01-16T02:56:30;9.18;;;1.90;;
26319;SDS011;14024;52.226;5.200;2024-01-16T02:58:55;14.13;;;2.83;;
26319;SDS011;14024;52.226;5.200;2024-01-16T03:01:21;5.78;;;1.60;;
26319;SDS011;14024;52.226;5.200;2024-01-16T03:03:46;6.03;;;1.95;;
26319;SDS011;14024;52.226;5.200;2024-01-16T03:06:20;6.38;;;1.90;;
26319;SDS011;14024;52.226;5.200;2024-01-16T03:08:47;5.43;;;1.27;;
26319;SDS011;14024;52.226;5.200;2024-01-16T03:11:12;4.30;;;1.23;;
26319;SDS011;14024;52.226;5.200;2024-01-16T03:13:37;3.97;;;1.52;;
26319;SDS011;14024;52.226;5.200;2024-01-16T03:16:06;10.48;;;1.27;;
26319;SDS011;14024;52.226;5.200;2024-01-16T03:18:32;10.73;;;3.33;;
26319;SDS011;14024;52.226;5.200;2024-01-16T03:20:58;8.18;;;1.58;;
26319;SDS011;14024;52.226;5.200;2024-01-16T03:23:24;3.83;;;1.30;;
26319;SDS011;14024;52.226;5.200;2024-01-16T03:25:49;10.98;;;2.05;;
26319;SDS011;14024;52.226;5.200;2024-01-16T03:28:15;4.97;;;1.30;;
26319;SDS011;14024;52.226;5.200;2024-01-16T03:30:40;3.88;;;1.40;;
26319;SDS011;14024;52.226;5.200;2024-01-16T03:33:05;12.27;;;3.30;;
26319;SDS011;14024;52.226;5.200;2024-01-16T03:35:31;7.97;;;1.60;;
26319;SDS011;14024;52.226;5.200;2024-01-16T03:37:56;4.70;;;1.90;;
26319;SDS011;14024;52.226;5.200;2024-01-16T03:40:21;3.15;;;1.58;;
26319;SDS011;14024;52.226;5.200;2024-01-16T03:42:47;6.50;;;1.50;;
26319;SDS011;14024;52.226;5.200;2024-01-16T03:45:12;4.88;;;1.42;;
26319;SDS011;14024;52.226;5.200;2024-01-16T03:47:38;9.32;;;2.10;;
26319;SDS011;14024;52.226;5.200;2024-01-16T03:50:03;5.38;;;1.52;;
26319;SDS011;14024;52.226;5.200;2024-01-16T03:52:29;4.75;;;1.73;;
26319;SDS011;14024;52.226;5.200;2024-01-16T03:54:54;10.32;;;1.85;;
26319;SDS011;14024;52.226;5.200;2024-01-16T03:57:20;7.50;;;1.27;;
26319;SDS011;14024;52.226;5.200;2024-01-16T03:59:45;6.85;;;2.42;;
26319;SDS011;14024;52.226;5.200;2024-01-16T04:02:10;5.55;;;1.48;;
26319;SDS011;14024;52.226;5.200;2024-01-16T04:04:36;6.63;;;1.30;;
26319;SDS011;14024;52.226;5.200;2024-01-16T04:07:01;4.97;;;1.30;;
26319;SDS011;14024;52.226;5.200;2024-01-16T04:09:26;9.38;;;1.65;;
26319;SDS011;14024;52.226;5.200;2024-01-16T04:11:52;7.05;;;1.30;;
26319;SDS011;14024;52.226;5.200;2024-01-16T04:14:17;7.28;;;2.20;;
26319;SDS011;14024;52.226;5.200;2024-01-16T04:16:43;6.22;;;1.33;;
26319;SDS011;14024;52.226;5.200;2024-01-16T04:19:08;2.92;;;1.10;;
26319;SDS011;14024;52.226;5.200;2024-01-16T04:21:34;4.25;;;1.25;;
26319;SDS011;14024;52.226;5.200;2024-01-16T04:24:01;6.43;;;1.40;;
26319;SDS011;14024;52.226;5.200;2024-01-16T04:26:26;6.22;;;1.38;;
26319;SDS011;14024;52.226;5.200;2024-01-16T04:28:51;5.80;;;1.77;;
26319;SDS011;14024;52.226;5.200;2024-01-16T04:31:17;6.43;;;1.77;;
26319;SDS011;14024;52.226;5.200;2024-01-16T04:33:44;10.38;;;1.50;;
26319;SDS011;14024;52.226;5.200;2024-01-16T04:36:10;4.53;;;1.55;;
26319;SDS011;14024;52.226;5.200;2024-01-16T04:38:35;7.50;;;1.65;;
26319;SDS011;14024;52.226;5.200;2024-01-16T04:41:01;4.65;;;1.88;;
26319;SDS011;14024;52.226;5.200;2024-01-16T04:43:27;7.55;;;2.65;;
26319;SDS011;14024;52.226;5.200;2024-01-16T04:45:53;8.48;;;1.90;;
26319;SDS011;14024;52.226;5.200;2024-01-16T04:48:18;12.95;;;3.13;;
26319;SDS011;14024;52.226;5.200;2024-01-16T04:50:43;9.93;;;2.03;;
26319;SDS011;14024;52.226;5.200;2024-01-16T04:53:10;8.38;;;2.42;;
26319;SDS011;14024;52.226;5.200;2024-01-16T04:55:35;9.65;;;2.22;;
26319;SDS011;14024;52.226;5.200;2024-01-16T04:58:01;10.40;;;2.03;;
26319;SDS011;14024;52.226;5.200;2024-01-16T05:00:26;8.27;;;2.30;;
26319;SDS011;14024;52.226;5.200;2024-01-16T05:02:52;6.25;;;2.42;;
26319;SDS011;14024;52.226;5.200;2024-01-16T05:05:18;10.20;;;2.60;;
26319;SDS011;14024;52.226;5.200;2024-01-16T05:07:43;6.20;;;2.05;;
26319;SDS011;14024;52.226;5.200;2024-01-16T05:10:10;16.75;;;2.83;;
26319;SDS011;14024;52.226;5.200;2024-01-16T05:12:41;8.98;;;3.92;;
26319;SDS011;14024;52.226;5.200;2024-01-16T05:15:07;10.73;;;3.28;;
26319;SDS011;14024;52.226;5.200;2024-01-16T05:17:33;12.02;;;3.08;;
26319;SDS011;14024;52.226;5.200;2024-01-16T05:19:59;7.20;;;2.40;;
26319;SDS011;14024;52.226;5.200;2024-01-16T05:22:25;9.93;;;2.60;;
26319;SDS011;14024;52.226;5.200;2024-01-16T05:24:50;10.80;;;2.70;;
26319;SDS011;14024;52.226;5.200;2024-01-16T05:27:16;12.45;;;2.90;;
26319;SDS011;14024;52.226;5.200;2024-01-16T05:29:41;6.28;;;2.50;;
26319;SDS011;14024;52.226;5.200;2024-01-16T05:32:07;9.10;;;2.53;;
26319;SDS011;14024;52.226;5.200;2024-01-16T05:34:32;7.55;;;3.22;;
26319;SDS011;14024;52.226;5.200;2024-01-16T05:36:57;13.07;;;3.00;;
26319;SDS011;14024;52.226;5.200;2024-01-16T05:39:22;11.70;;;2.70;;
26319;SDS011;14024;52.226;5.200;2024-01-16T05:41:48;6.45;;;2.00;;
26319;SDS011;14024;52.226;5.200;2024-01-16T05:44:13;4.60;;;2.30;;
26319;SDS011;14024;52.226;5.200;2024-01-16T05:46:38;13.25;;;2.65;;
26319;SDS011;14024;52.226;5.200;2024-01-16T05:49:04;7.45;;;2.55;;
26319;SDS011;14024;52.226;5.200;2024-01-16T05:51:29;18.13;;;2.72;;
26319;SDS011;14024;52.226;5.200;2024-01-16T05:53:55;17.35;;;5.75;;
26319;SDS011;14024;52.226;5.200;2024-01-16T05:56:20;7.38;;;2.67;;
26319;SDS011;14024;52.226;5.200;2024-01-16T05:58:46;12.57;;;3.13;;
26319;SDS011;14024;52.226;5.200;2024-01-16T06:01:11;8.40;;;3.00;;
26319;SDS011;14024;52.226;5.200;2024-01-16T06:03:38;7.28;;;2.90;;
26319;SDS011;14024;52.226;5.200;2024-01-16T06:06:04;10.50;;;2.90;;
26319;SDS011;14024;52.226;5.200;2024-01-16T06:08:30;12.75;;;3.85;;
26319;SDS011;14024;52.226;5.200;2024-01-16T06:10:55;9.98;;;3.78;;
26319;SDS011;14024;52.226;5.200;2024-01-16T06:13:21;15.20;;;3.10;;
26319;SDS011;14024;52.226;5.200;2024-01-16T06:15:47;8.27;;;3.33;;
26319;SDS011;14024;52.226;5.200;2024-01-16T06:18:12;6.65;;;3.45;;
26319;SDS011;14024;52.226;5.200;2024-01-16T06:20:38;5.88;;;2.78;;
26319;SDS011;14024;52.226;5.200;2024-01-16T06:23:03;8.70;;;3.00;;
26319;SDS011;14024;52.226;5.200;2024-01-16T06:25:29;5.65;;;2.88;;
26319;SDS011;14024;52.226;5.200;2024-01-16T06:27:54;6.57;;;2.88;;
26319;SDS011;14024;52.226;5.200;2024-01-16T06:30:20;5.57;;;2.70;;
26319;SDS011;14024;52.226;5.200;2024-01-16T06:32:46;8.20;;;2.70;;
26319;SDS011;14024;52.226;5.200;2024-01-16T06:35:12;7.40;;;2.95;;
26319;SDS011;14024;52.226;5.200;2024-01-16T06:37:38;7.97;;;2.88;;
26319;SDS011;14024;52.226;5.200;2024-01-16T06:40:04;6.47;;;2.60;;
26319;SDS011;14024;52.226;5.200;2024-01-16T06:42:30;10.13;;;2.58;;
26319;SDS011;14024;52.226;5.200;2024-01-16T06:44:56;19.15;;;3.53;;
26319;SDS011;14024;52.226;5.200;2024-01-16T06:47:21;8.93;;;2.97;;
26319;SDS011;14024;52.226;5.200;2024-01-16T06:49:48;8.98;;;3.38;;
26319;SDS011;14024;52.226;5.200;2024-01-16T06:52:13;8.35;;;3.20;;
26319;SDS011;14024;52.226;5.200;2024-01-16T06:54:38;9.13;;;3.17;;
26319;SDS011;14024;52.226;5.200;2024-01-16T06:57:03;14.85;;;3.15;;
26319;SDS011;14024;52.226;5.200;2024-01-16T06:59:29;11.45;;;3.20;;
26319;SDS011;14024;52.226;5.200;2024-01-16T07:01:55;14.15;;;3.42;;
26319;SDS011;14024;52.226;5.200;2024-01-16T07:04:20;12.27;;;3.70;;
26319;SDS011;14024;52.226;5.200;2024-01-16T07:06:45;10.05;;;3.72;;
26319;SDS011;14024;52.226;5.200;2024-01-16T07:09:11;9.73;;;4.22;;
26319;SDS011;14024;52.226;5.200;2024-01-16T07:11:37;16.20;;;3.38;;
26319;SDS011;14024;52.226;5.200;2024-01-16T07:14:03;8.73;;;3.40;;
26319;SDS011;14024;52.226;5.200;2024-01-16T07:16:28;14.63;;;3.85;;
26319;SDS011;14024;52.226;5.200;2024-01-16T07:18:54;6.78;;;3.50;;
26319;SDS011;14024;52.226;5.200;2024-01-16T07:21:20;9.45;;;3.83;;
26319;SDS011;14024;52.226;5.200;2024-01-16T07:23:46;12.23;;;3.78;;
26319;SDS011;14024;52.226;5.200;2024-01-16T07:26:12;10.25;;;4.20;;
26319;SDS011;14024;52.226;5.200;2024-01-16T07:28:37;11.32;;;4.28;;
26319;SDS011;14024;52.226;5.200;2024-01-16T07:31:03;10.65;;;3.63;;
26319;SDS011;14024;52.226;5.200;2024-01-16T07:33:28;8.60;;;3.97;;
26319;SDS011;14024;52.226;5.200;2024-01-16T07:35:54;7.45;;;3.60;;
26319;SDS011;14024;52.226;5.200;2024-01-16T07:38:20;14.55;;;4.50;;
26319;SDS011;14024;52.226;5.200;2024-01-16T07:40:45;15.07;;;4.80;;
26319;SDS011;14024;52.226;5.200;2024-01-16T07:43:11;16.67;;;6.22;;
26319;SDS011;14024;52.226;5.200;2024-01-16T07:45:37;9.05;;;5.28;;
26319;SDS011;14024;52.226;5.200;2024-01-16T07:48:02;12.07;;;5.60;;
26319;SDS011;14024;52.226;5.200;2024-01-16T07:50:30;17.60;;;5.82;;
26319;SDS011;14024;52.226;5.200;2024-01-16T07:52:55;16.45;;;6.47;;
26319;SDS011;14024;52.226;5.200;2024-01-16T07:55:21;15.68;;;6.22;;
26319;SDS011;14024;52.226;5.200;2024-01-16T07:57:46;14.80;;;6.30;;
26319;SDS011;14024;52.226;5.200;2024-01-16T08:00:11;23.00;;;8.25;;
26319;SDS011;14024;52.226;5.200;2024-01-16T08:02:37;20.25;;;8.73;;
26319;SDS011;14024;52.226;5.200;2024-01-16T08:05:03;27.75;;;10.02;;
26319;SDS011;14024;52.226;5.200;2024-01-16T08:07:29;21.33;;;8.52;;
26319;SDS011;14024;52.226;5.200;2024-01-16T08:09:55;21.23;;;9.68;;
26319;SDS011;14024;52.226;5.200;2024-01-16T08:12:21;24.33;;;9.50;;
26319;SDS011;14024;52.226;5.200;2024-01-16T08:14:46;22.55;;;9.95;;
26319;SDS011;14024;52.226;5.200;2024-01-16T08:17:11;21.70;;;9.25;;
26319;SDS011;14024;52.226;5.200;2024-01-16T08:19:37;25.10;;;10.52;;
26319;SDS011;14024;52.226;5.200;2024-01-16T08:22:02;24.55;;;10.00;;
26319;SDS011;14024;52.226;5.200;2024-01-16T08:24:28;22.05;;;9.75;;
26319;SDS011;14024;52.226;5.200;2024-01-16T08:26:53;31.50;;;10.00;;
26319;SDS011;14024;52.226;5.200;2024-01-16T08:29:18;25.40;;;9.35;;
26319;SDS011;14024;52.226;5.200;2024-01-16T08:31:44;17.38;;;8.27;;
26319;SDS011;14024;52.226;5.200;2024-01-16T08:34:09;26.98;;;11.30;;
26319;SDS011;14024;52.226;5.200;2024-01-16T08:36:34;21.95;;;8.25;;
26319;SDS011;14024;52.226;5.200;2024-01-16T08:39:00;19.88;;;9.38;;
26319;SDS011;14024;52.226;5.200;2024-01-16T08:41:25;32.58;;;9.50;;
26319;SDS011;14024;52.226;5.200;2024-01-16T08:43:50;18.13;;;8.45;;
26319;SDS011;14024;52.226;5.200;2024-01-16T08:46:16;25.55;;;8.45;;
26319;SDS011;14024;52.226;5.200;2024-01-16T08:48:44;19.83;;;7.35;;
26319;SDS011;14024;52.226;5.200;2024-01-16T08:51:10;16.92;;;7.90;;
26319;SDS011;14024;52.226;5.200;2024-01-16T08:53:39;22.70;;;7.35;;
26319;SDS011;14024;52.226;5.200;2024-01-16T08:56:05;32.90;;;7.57;;
26319;SDS011;14024;52.226;5.200;2024-01-16T08:58:33;24.75;;;7.30;;
26319;SDS011;14024;52.226;5.200;2024-01-16T09:01:04;20.02;;;7.70;;
26319;SDS011;14024;52.226;5.200;2024-01-16T09:03:30;18.73;;;6.85;;
26319;SDS011;14024;52.226;5.200;2024-01-16T09:05:57;19.27;;;6.38;;
26319;SDS011;14024;52.226;5.200;2024-01-16T09:08:22;15.63;;;6.35;;
26319;SDS011;14024;52.226;5.200;2024-01-16T09:10:47;16.42;;;5.80;;
26319;SDS011;14024;52.226;5.200;2024-01-16T09:13:13;26.98;;;6.38;;
26319;SDS011;14024;52.226;5.200;2024-01-16T09:15:38;16.10;;;5.55;;
26319;SDS011;14024;52.226;5.200;2024-01-16T09:18:04;22.08;;;6.15;;
26319;SDS011;14024;52.226;5.200;2024-01-16T09:20:30;14.55;;;6.65;;
26319;SDS011;14024;52.226;5.200;2024-01-16T09:22:56;13.07;;;5.95;;
26319;SDS011;14024;52.226;5.200;2024-01-16T09:25:21;13.93;;;5.03;;
26319;SDS011;14024;52.226;5.200;2024-01-16T09:27:49;11.20;;;5.00;;
26319;SDS011;14024;52.226;5.200;2024-01-16T09:30:15;28.27;;;6.28;;
26319;SDS011;14024;52.226;5.200;2024-01-16T09:32:41;21.45;;;5.38;;
26319;SDS011;14024;52.226;5.200;2024-01-16T09:35:07;19.25;;;5.55;;
26319;SDS011;14024;52.226;5.200;2024-01-16T09:37:34;15.88;;;5.60;;
26319;SDS011;14024;52.226;5.200;2024-01-16T09:39:59;12.23;;;5.10;;
26319;SDS011;14024;52.226;5.200;2024-01-16T09:42:25;18.48;;;5.68;;
26319;SDS011;14024;52.226;5.200;2024-01-16T09:44:51;14.15;;;5.55;;
26319;SDS011;14024;52.226;5.200;2024-01-16T09:47:17;21.40;;;5.57;;
26319;SDS011;14024;52.226;5.200;2024-01-16T09:49:42;11.45;;;5.07;;
26319;SDS011;14024;52.226;5.200;2024-01-16T09:52:11;14.90;;;5.18;;
26319;SDS011;14024;52.226;5.200;2024-01-16T09:54:36;22.17;;;4.82;;
26319;SDS011;14024;52.226;5.200;2024-01-16T09:57:02;14.68;;;4.90;;
26319;SDS011;14024;52.226;5.200;2024-01-16T09:59:31;13.25;;;4.78;;
26319;SDS011;14024;52.226;5.200;2024-01-16T10:02:00;23.23;;;4.50;;
26319;SDS011;14024;52.226;5.200;2024-01-16T10:04:30;12.32;;;4.25;;
26319;SDS011;14024;52.226;5.200;2024-01-16T10:06:56;15.77;;;4.30;;
26319;SDS011;14024;52.226;5.200;2024-01-16T10:09:23;15.80;;;4.40;;
26319;SDS011;14024;52.226;5.200;2024-01-16T10:11:48;12.50;;;4.45;;
26319;SDS011;14024;52.226;5.200;2024-01-16T10:14:15;11.07;;;4.13;;
26319;SDS011;14024;52.226;5.200;2024-01-16T10:16:58;14.68;;;4.32;;
26319;SDS011;14024;52.226;5.200;2024-01-16T10:19:27;12.77;;;3.95;;
26319;SDS011;14024;52.226;5.200;2024-01-16T10:22:00;12.70;;;3.80;;
26319;SDS011;14024;52.226;5.200;2024-01-16T10:24:29;7.60;;;3.42;;
26319;SDS011;14024;52.226;5.200;2024-01-16T10:26:58;11.50;;;4.30;;
26319;SDS011;14024;52.226;5.200;2024-01-16T10:29:31;9.95;;;3.70;;
26319;SDS011;14024;52.226;5.200;2024-01-16T10:31:57;13.82;;;4.30;;
26319;SDS011;14024;52.226;5.200;2024-01-16T10:34:23;8.10;;;3.58;;
26319;SDS011;14024;52.226;5.200;2024-01-16T10:36:58;8.95;;;3.50;;
26319;SDS011;14024;52.226;5.200;2024-01-16T10:39:25;11.85;;;4.05;;
26319;SDS011;14024;52.226;5.200;2024-01-16T10:41:54;14.05;;;4.00;;
26319;SDS011;14024;52.226;5.200;2024-01-16T10:44:20;12.45;;;4.15;;
26319;SDS011;14024;52.226;5.200;2024-01-16T10:46:46;15.63;;;4.00;;
26319;SDS011;14024;52.226;5.200;2024-01-16T10:49:11;16.90;;;5.35;;
26319;SDS011;14024;52.226;5.200;2024-01-16T10:51:36;10.55;;;3.85;;
26319;SDS011;14024;52.226;5.200;2024-01-16T10:54:04;9.98;;;3.88;;
26319;SDS011;14024;52.226;5.200;2024-01-16T10:56:31;11.45;;;4.50;;
26319;SDS011;14024;52.226;5.200;2024-01-16T11:01:37;9.43;;;3.85;;
26319;SDS011;14024;52.226;5.200;2024-01-16T11:04:04;8.57;;;3.67;;
26319;SDS011;14024;52.226;5.200;2024-01-16T11:06:30;25.38;;;5.60;;
26319;SDS011;14024;52.226;5.200;2024-01-16T11:08:57;9.80;;;3.42;;
26319;SDS011;14024;52.226;5.200;2024-01-16T11:11:24;11.20;;;3.55;;
26319;SDS011;14024;52.226;5.200;2024-01-16T11:13:53;10.35;;;3.80;;
26319;SDS011;14024;52.226;5.200;2024-01-16T11:16:21;11.90;;;4.18;;
26319;SDS011;14024;52.226;5.200;2024-01-16T11:18:48;7.43;;;3.85;;
26319;SDS011;14024;52.226;5.200;2024-01-16T11:21:14;10.25;;;3.90;;
26319;SDS011;14024;52.226;5.200;2024-01-16T11:23:41;13.88;;;5.22;;
26319;SDS011;14024;52.226;5.200;2024-01-16T11:28:56;11.25;;;3.90;;
26319;SDS011;14024;52.226;5.200;2024-01-16T11:31:34;12.50;;;4.15;;
26319;SDS011;14024;52.226;5.200;2024-01-16T11:34:01;5.72;;;2.97;;
26319;SDS011;14024;52.226;5.200;2024-01-16T11:39:25;11.27;;;3.05;;
26319;SDS011;14024;52.226;5.200;2024-01-16T11:47:19;13.23;;;3.83;;
26319;SDS011;14024;52.226;5.200;2024-01-16T11:49:46;10.30;;;3.35;;
26319;SDS011;14024;52.226;5.200;2024-01-16T11:52:12;9.73;;;3.78;;
26319;SDS011;14024;52.226;5.200;2024-01-16T11:54:39;10.93;;;3.63;;
26319;SDS011;14024;52.226;5.200;2024-01-16T11:59:57;12.48;;;3.67;;
26319;SDS011;14024;52.226;5.200;2024-01-16T12:02:34;11.55;;;4.22;;
26319;SDS011;14024;52.226;5.200;2024-01-16T12:05:22;19.02;;;4.22;;
26319;SDS011;14024;52.226;5.200;2024-01-16T12:07:51;10.98;;;3.65;;
26319;SDS011;14024;52.226;5.200;2024-01-16T12:10:18;7.03;;;3.10;;
26319;SDS011;14024;52.226;5.200;2024-01-16T12:12:45;6.90;;;3.20;;
26319;SDS011;14024;52.226;5.200;2024-01-16T12:15:20;12.07;;;5.03;;
26319;SDS011;14024;52.226;5.200;2024-01-16T12:17:56;11.65;;;3.33;;
26319;SDS011;14024;52.226;5.200;2024-01-16T12:20:24;9.95;;;3.60;;
26319;SDS011;14024;52.226;5.200;2024-01-16T12:25:23;10.07;;;4.10;;
26319;SDS011;14024;52.226;5.200;2024-01-16T12:30:35;13.52;;;4.15;;
26319;SDS011;14024;52.226;5.200;2024-01-16T12:33:08;12.10;;;3.88;;
26319;SDS011;14024;52.226;5.200;2024-01-16T12:35:35;15.35;;;4.07;;
26319;SDS011;14024;52.226;5.200;2024-01-16T12:38:06;26.45;;;4.70;;
26319;SDS011;14024;52.226;5.200;2024-01-16T12:40:45;12.98;;;5.28;;
26319;SDS011;14024;52.226;5.200;2024-01-16T12:43:19;8.05;;;3.30;;
26319;SDS011;14024;52.226;5.200;2024-01-16T12:45:45;12.38;;;4.35;;
26319;SDS011;14024;52.226;5.200;2024-01-16T12:48:11;11.80;;;3.95;;
26319;SDS011;14024;52.226;5.200;2024-01-16T12:50:36;12.45;;;3.95;;
26319;SDS011;14024;52.226;5.200;2024-01-16T12:55:35;12.43;;;5.15;;
26319;SDS011;14024;52.226;5.200;2024-01-16T12:58:18;15.10;;;4.78;;
26319;SDS011;14024;52.226;5.200;2024-01-16T13:00:45;12.70;;;4.22;;
26319;SDS011;14024;52.226;5.200;2024-01-16T13:03:17;11.02;;;4.28;;
26319;SDS011;14024;52.226;5.200;2024-01-16T13:05:44;9.55;;;3.83;;
26319;SDS011;14024;52.226;5.200;2024-01-16T13:08:16;17.33;;;5.40;;
26319;SDS011;14024;52.226;5.200;2024-01-16T13:10:43;15.02;;;4.90;;
26319;SDS011;14024;52.226;5.200;2024-01-16T13:13:12;12.73;;;4.43;;
26319;SDS011;14024;52.226;5.200;2024-01-16T13:15:41;14.43;;;4.38;;
26319;SDS011;14024;52.226;5.200;2024-01-16T13:18:16;7.57;;;4.13;;
26319;SDS011;14024;52.226;5.200;2024-01-16T13:20:46;10.55;;;2.47;;
26319;SDS011;14024;52.226;5.200;2024-01-16T13:23:13;10.63;;;2.50;;
26319;SDS011;14024;52.226;5.200;2024-01-16T13:25:39;4.82;;;2.03;;
26319;SDS011;14024;52.226;5.200;2024-01-16T13:28:06;7.38;;;1.88;;
26319;SDS011;14024;52.226;5.200;2024-01-16T13:30:32;9.05;;;2.55;;
26319;SDS011;14024;52.226;5.200;2024-01-16T13:32:58;7.22;;;2.05;;
26319;SDS011;14024;52.226;5.200;2024-01-16T13:35:24;6.20;;;2.00;;
26319;SDS011;14024;52.226;5.200;2024-01-16T13:37:49;5.82;;;2.15;;
26319;SDS011;14024;52.226;5.200;2024-01-16T13:40:15;5.45;;;2.00;;
26319;SDS011;14024;52.226;5.200;2024-01-16T13:42:43;9.30;;;2.00;;
26319;SDS011;14024;52.226;5.200;2024-01-16T13:45:09;8.95;;;3.70;;
26319;SDS011;14024;52.226;5.200;2024-01-16T13:47:38;12.30;;;2.80;;
26319;SDS011;14024;52.226;5.200;2024-01-16T13:50:05;9.02;;;2.13;;
26319;SDS011;14024;52.226;5.200;2024-01-16T13:52:32;7.68;;;2.47;;
26319;SDS011;14024;52.226;5.200;2024-01-16T13:54:58;7.10;;;2.10;;
26319;SDS011;14024;52.226;5.200;2024-01-16T13:57:25;6.28;;;2.00;;
26319;SDS011;14024;52.226;5.200;2024-01-16T13:59:50;6.90;;;2.47;;
26319;SDS011;14024;52.226;5.200;2024-01-16T14:02:16;6.45;;;1.70;;
26319;SDS011;14024;52.226;5.200;2024-01-16T14:04:41;7.05;;;2.20;;
26319;SDS011;14024;52.226;5.200;2024-01-16T14:07:07;5.18;;;2.60;;
26319;SDS011;14024;52.226;5.200;2024-01-16T14:09:33;6.22;;;2.40;;
26319;SDS011;14024;52.226;5.200;2024-01-16T14:11:59;8.23;;;2.92;;
26319;SDS011;14024;52.226;5.200;2024-01-16T14:14:24;6.93;;;2.10;;
26319;SDS011;14024;52.226;5.200;2024-01-16T14:16:50;5.45;;;1.80;;
26319;SDS011;14024;52.226;5.200;2024-01-16T14:19:15;9.57;;;2.10;;
26319;SDS011;14024;52.226;5.200;2024-01-16T14:21:42;5.88;;;1.95;;
26319;SDS011;14024;52.226;5.200;2024-01-16T14:24:07;4.22;;;1.70;;
26319;SDS011;14024;52.226;5.200;2024-01-16T14:26:33;10.25;;;2.85;;
26319;SDS011;14024;52.226;5.200;2024-01-16T14:28:59;11.82;;;2.00;;
26319;SDS011;14024;52.226;5.200;2024-01-16T14:31:24;7.45;;;1.70;;
26319;SDS011;14024;52.226;5.200;2024-01-16T14:33:51;6.05;;;2.88;;
26319;SDS011;14024;52.226;5.200;2024-01-16T14:36:18;5.60;;;1.90;;
26319;SDS011;14024;52.226;5.200;2024-01-16T14:38:45;7.45;;;2.13;;
26319;SDS011;14024;52.226;5.200;2024-01-16T14:41:10;5.35;;;1.55;;
26319;SDS011;14024;52.226;5.200;2024-01-16T14:43:37;3.35;;;1.52;;
26319;SDS011;14024;52.226;5.200;2024-01-16T14:46:03;3.70;;;1.50;;
26319;SDS011;14024;52.226;5.200;2024-01-16T14:48:29;7.10;;;1.67;;
26319;SDS011;14024;52.226;5.200;2024-01-16T14:50:55;2.63;;;1.42;;
26319;SDS011;14024;52.226;5.200;2024-01-16T14:53:20;4.90;;;1.92;;
26319;SDS011;14024;52.226;5.200;2024-01-16T14:55:46;2.85;;;1.38;;
26319;SDS011;14024;52.226;5.200;2024-01-16T14:58:11;6.53;;;1.90;;
26319;SDS011;14024;52.226;5.200;2024-01-16T15:00:37;4.88;;;1.58;;